Decoded Metar for SARL (PASO DE LOS LIBRES in ARGENTINA) (IATA:AOL) | Meteo·Mobile Aviation Weather
aviador You're here:

SARL Decoded Metar

PASO DE LOS LIBRES in ARGENTINA
Report Time2019-01-20 11:00:00
UTC Time2019-01-20 11:40:33
Flight Rules mvfr MVFR
Wind140° at 09 kt
W.Decomp.*RWY 18: 7.9 kt HW 4.4 kt LCW
W.Rank140° ranks 3
Current wind is below 140° avg. (9.5)
Visibility9999 m
Phenomena:N/A
Clouds:Overcast 015 Hf
Expected CloudBase > 400 ft AGL from Temp-Dew spread
Ceiling1,500 ft
Temp19°C (ISA +4)
Dew Point18°C (94% RH)
AAT18.6°C
QNH1017 hPa
Density Alt892 ft
Elevation230 ft
Report Wrong Elevation
Raw Report
METAR SARL 201100Z 14009KT 9999 OVC015 19/18 Q1017=

Extra information for SARL:More info

Metar Taf Metar & Taf Last 4 Metars F.Rules Stats Wind Profile Meteogram Temp Stats Airport Information Weather charts Add Link Nearby VenuesMetar ALERT Operation Metar Decoded Social comments